createdAt,value
2019-02-08T00:00:40.790Z,0.00
2019-02-08T00:01:41.248Z,0.00
2019-02-08T00:02:41.743Z,0.00
2019-02-08T00:03:42.199Z,0.00
2019-02-08T00:04:42.637Z,0.00
2019-02-08T00:05:43.463Z,0.00
2019-02-08T00:06:43.940Z,0.00
2019-02-08T00:07:44.400Z,0.00
2019-02-08T00:08:44.835Z,0.00
2019-02-08T00:09:45.279Z,0.00
2019-02-08T00:10:45.714Z,0.00
2019-02-08T00:11:46.191Z,0.00
2019-02-08T00:12:46.634Z,0.00
2019-02-08T00:13:47.457Z,0.00
2019-02-08T00:14:47.905Z,0.00
2019-02-08T00:15:48.348Z,0.00
2019-02-08T00:16:48.816Z,0.00
2019-02-08T00:17:49.363Z,0.00
2019-02-08T00:18:49.946Z,0.00
2019-02-08T00:19:50.393Z,0.00
2019-02-08T00:20:50.828Z,0.00
2019-02-08T00:21:51.591Z,0.00
2019-02-08T00:22:52.026Z,0.00
2019-02-08T00:23:52.484Z,0.00
2019-02-08T00:24:52.938Z,0.00
2019-02-08T00:25:53.383Z,0.00
2019-02-08T00:26:53.925Z,0.00
2019-02-08T00:27:54.377Z,0.00
2019-02-08T00:28:54.927Z,0.00
2019-02-08T00:29:55.743Z,0.00
2019-02-08T00:30:56.206Z,0.00
2019-02-08T00:31:56.713Z,0.00
2019-02-08T00:32:57.154Z,0.00
2019-02-08T00:33:57.625Z,0.00
2019-02-08T00:34:58.132Z,0.00
2019-02-08T00:35:58.581Z,0.00
2019-02-08T00:36:59.106Z,0.00
2019-02-08T00:37:59.902Z,0.00
2019-02-08T00:39:01.437Z,0.00
2019-02-08T00:40:01.885Z,0.00
2019-02-08T00:41:02.339Z,0.00
2019-02-08T00:42:02.804Z,0.00
2019-02-08T00:43:03.247Z,0.00
2019-02-08T00:44:03.696Z,0.00
2019-02-08T00:45:04.131Z,0.00
2019-02-08T00:46:04.881Z,0.00
2019-02-08T00:47:08.889Z,0.00
2019-02-08T00:48:09.355Z,0.00
2019-02-08T00:49:09.798Z,0.00
2019-02-08T00:50:17.062Z,0.00
2019-02-08T00:51:17.501Z,0.00
2019-02-08T00:52:17.962Z,0.00
2019-02-08T00:53:18.399Z,0.00
2019-02-08T00:54:18.836Z,0.00
2019-02-08T00:55:19.761Z,0.00
2019-02-08T00:56:20.199Z,0.00
2019-02-08T00:57:22.809Z,0.00
2019-02-08T00:58:23.255Z,0.00
2019-02-08T00:59:23.783Z,0.00
2019-02-08T01:00:24.220Z,0.00
2019-02-08T01:01:24.659Z,0.00
2019-02-08T01:02:25.119Z,0.00
2019-02-08T01:03:25.879Z,0.00
2019-02-08T01:04:26.313Z,0.00
2019-02-08T01:05:26.779Z,0.00
2019-02-08T01:06:27.242Z,0.00
2019-02-08T01:07:27.717Z,0.00
2019-02-08T01:08:28.552Z,0.00
2019-02-08T01:09:28.988Z,0.00
2019-02-08T01:10:29.431Z,0.00
2019-02-08T01:11:30.223Z,0.00
2019-02-08T01:12:30.713Z,0.00
2019-02-08T01:13:31.152Z,0.00
2019-02-08T01:14:31.663Z,0.00
2019-02-08T01:15:32.103Z,0.00
2019-02-08T01:16:32.550Z,0.00
2019-02-08T01:17:33.015Z,0.00
2019-02-08T01:18:33.454Z,0.00
2019-02-08T01:19:34.253Z,0.00
2019-02-08T01:20:34.693Z,0.00
2019-02-08T01:21:35.128Z,0.00
2019-02-08T01:22:35.580Z,0.00
2019-02-08T01:23:41.011Z,0.00
2019-02-08T01:24:42.421Z,0.00
2019-02-08T01:25:42.892Z,0.00
2019-02-08T01:26:43.556Z,0.00
2019-02-08T01:27:43.991Z,0.00
2019-02-08T01:28:44.616Z,0.00
2019-02-08T01:29:45.048Z,0.00
2019-02-08T01:30:45.484Z,0.00
2019-02-08T01:31:46.109Z,0.00
2019-02-08T01:32:46.541Z,0.00
2019-02-08T01:33:46.968Z,0.00
2019-02-08T01:34:47.410Z,0.00
2019-02-08T01:35:47.867Z,0.00
2019-02-08T01:36:48.327Z,0.00
2019-02-08T01:37:48.763Z,0.00
2019-02-08T01:38:49.201Z,0.00
2019-02-08T01:39:49.642Z,0.00
2019-02-08T01:40:50.157Z,0.00
2019-02-08T01:41:52.432Z,0.00
2019-02-08T01:42:52.863Z,0.00
2019-02-08T01:43:53.298Z,0.00
2019-02-08T01:44:53.730Z,0.00
2019-02-08T01:45:54.157Z,0.00
2019-02-08T01:46:54.603Z,0.00
2019-02-08T01:48:01.969Z,0.00
2019-02-08T01:50:17.432Z,0.00
2019-02-08T01:51:17.865Z,0.00
2019-02-08T01:52:18.315Z,0.00
2019-02-08T01:53:20.930Z,0.00
2019-02-08T01:54:21.368Z,0.00
2019-02-08T01:55:30.579Z,0.00
2019-02-08T01:56:31.017Z,0.00
2019-02-08T01:57:31.643Z,0.00
2019-02-08T01:58:32.089Z,0.00
2019-02-08T01:59:32.518Z,0.00
2019-02-08T02:00:32.962Z,0.00
2019-02-08T02:01:33.394Z,0.00
2019-02-08T02:02:34.030Z,0.00
2019-02-08T02:03:34.468Z,0.00
2019-02-08T02:04:34.906Z,0.00
2019-02-08T02:05:42.106Z,0.00
2019-02-08T02:06:42.550Z,0.00
2019-02-08T02:07:43.178Z,0.00
2019-02-08T02:08:43.613Z,0.00
2019-02-08T02:09:44.182Z,0.00
2019-02-08T02:10:44.611Z,0.00
2019-02-08T02:11:47.165Z,0.00
2019-02-08T02:12:47.618Z,0.00
2019-02-08T02:13:48.203Z,0.00
2019-02-08T02:14:48.649Z,0.00
2019-02-08T02:15:56.114Z,0.00
2019-02-08T02:16:56.545Z,0.00
2019-02-08T02:17:57.176Z,0.00
2019-02-08T02:18:57.612Z,0.00
2019-02-08T02:19:58.187Z,0.00
2019-02-08T02:20:58.621Z,0.00
2019-02-08T02:21:59.229Z,0.00
2019-02-08T02:22:59.703Z,0.00
2019-02-08T02:24:00.362Z,0.00
2019-02-08T02:25:00.786Z,0.00
2019-02-08T02:26:02.420Z,0.00
2019-02-08T02:27:02.860Z,0.00
2019-02-08T02:28:03.511Z,0.00
2019-02-08T02:29:03.936Z,0.00
2019-02-08T02:30:04.527Z,0.00
2019-02-08T02:31:04.957Z,0.00
2019-02-08T02:32:06.569Z,0.00
2019-02-08T02:33:07.034Z,0.00
2019-02-08T02:34:07.608Z,0.00
2019-02-08T02:35:08.044Z,0.00
2019-02-08T02:36:08.634Z,0.00
2019-02-08T02:37:09.074Z,0.00
2019-02-08T02:38:09.706Z,0.00
2019-02-08T02:39:10.142Z,0.00
2019-02-08T02:40:10.708Z,0.00
2019-02-08T02:41:11.149Z,0.00
2019-02-08T02:42:11.647Z,0.00
2019-02-08T02:43:12.100Z,0.00
2019-02-08T02:44:12.585Z,0.00
2019-02-08T02:45:13.033Z,0.00
2019-02-08T02:46:15.567Z,0.00
2019-02-08T02:47:16.003Z,0.00
2019-02-08T02:48:17.562Z,0.00
2019-02-08T02:49:18.006Z,0.00
2019-02-08T02:50:18.466Z,0.00
2019-02-08T02:51:18.902Z,0.00
2019-02-08T02:52:19.398Z,0.00
2019-02-08T02:53:19.854Z,0.00
2019-02-08T02:54:20.350Z,0.00
2019-02-08T02:55:20.778Z,0.00
2019-02-08T02:56:21.265Z,0.00
2019-02-08T02:57:21.720Z,0.00
2019-02-08T02:58:22.235Z,0.00
2019-02-08T02:59:22.668Z,0.00
2019-02-08T03:00:23.142Z,0.00
2019-02-08T03:01:23.579Z,8.00
2019-02-08T03:02:24.077Z,12.00
2019-02-08T03:03:24.520Z,0.00
2019-02-08T03:04:27.065Z,0.00
2019-02-08T03:05:27.502Z,0.00
2019-02-08T03:07:44.474Z,0.00
2019-02-08T03:08:59.449Z,0.00
2019-02-08T03:09:59.887Z,0.00
2019-02-08T03:11:00.393Z,0.00
2019-02-08T03:12:00.826Z,0.00
2019-02-08T03:13:01.353Z,0.00
2019-02-08T03:14:01.781Z,0.00
2019-02-08T03:15:02.261Z,0.00
2019-02-08T03:16:02.715Z,0.00
2019-02-08T03:17:03.192Z,0.00
2019-02-08T03:18:03.633Z,0.00
2019-02-08T03:19:04.137Z,0.00
2019-02-08T03:20:04.576Z,0.00
2019-02-08T03:21:05.059Z,0.00
2019-02-08T03:22:05.495Z,0.00
2019-02-08T03:23:08.079Z,0.00
2019-02-08T03:24:13.045Z,0.00
2019-02-08T03:25:13.790Z,0.00
2019-02-08T03:26:14.223Z,0.00
2019-02-08T03:27:14.724Z,0.00
2019-02-08T03:28:15.171Z,0.00
2019-02-08T03:29:15.759Z,0.00
2019-02-08T03:30:16.201Z,0.00
2019-02-08T03:31:16.695Z,0.00
2019-02-08T03:32:17.137Z,0.00
2019-02-08T03:33:17.677Z,0.00
2019-02-08T03:34:18.118Z,0.00
2019-02-08T03:35:18.576Z,0.00
2019-02-08T03:36:19.020Z,0.00
2019-02-08T03:37:40.593Z,0.00
2019-02-08T03:38:41.041Z,0.00
2019-02-08T03:39:41.528Z,0.00
2019-02-08T03:40:41.967Z,0.00
2019-02-08T03:42:11.547Z,0.00
2019-02-08T03:43:12.005Z,0.00
2019-02-08T03:44:19.560Z,0.00
2019-02-08T03:45:19.993Z,0.00
2019-02-08T03:46:29.517Z,0.00
2019-02-08T03:47:29.952Z,0.00
2019-02-08T03:48:45.520Z,0.00
2019-02-08T03:49:45.969Z,0.00
2019-02-08T03:50:47.555Z,0.00
2019-02-08T03:51:48.004Z,0.00
2019-02-08T03:52:48.587Z,0.00
2019-02-08T03:53:49.035Z,0.00
2019-02-08T03:54:50.543Z,0.00
2019-02-08T03:55:57.988Z,0.00
2019-02-08T03:56:58.439Z,0.00
2019-02-08T03:58:01.411Z,0.00
2019-02-08T03:59:01.867Z,0.00
2019-02-08T04:00:02.436Z,0.00
2019-02-08T04:01:02.868Z,0.00
2019-02-08T04:02:03.363Z,0.00
2019-02-08T04:03:03.795Z,0.00
2019-02-08T04:04:04.339Z,0.00
2019-02-08T04:05:04.775Z,0.00
2019-02-08T04:06:05.331Z,0.00
2019-02-08T04:07:05.769Z,0.00
2019-02-08T04:08:06.267Z,0.00
2019-02-08T04:09:06.724Z,0.00
2019-02-08T04:10:08.229Z,0.00
2019-02-08T04:11:08.663Z,0.00
2019-02-08T04:12:10.189Z,0.00
2019-02-08T04:13:10.649Z,0.00
2019-02-08T04:14:12.188Z,0.00
2019-02-08T04:15:12.623Z,0.00
2019-02-08T04:16:14.106Z,0.00
2019-02-08T04:17:14.540Z,0.00
2019-02-08T04:18:16.064Z,0.00
2019-02-08T04:19:16.520Z,0.00
2019-02-08T04:20:16.999Z,0.00
2019-02-08T04:21:17.436Z,0.00
2019-02-08T04:22:17.953Z,0.00
2019-02-08T04:23:18.400Z,0.00
2019-02-08T04:24:18.906Z,0.00
2019-02-08T04:25:19.348Z,0.00
2019-02-08T04:26:20.834Z,0.00
2019-02-08T04:27:21.270Z,0.00
2019-02-08T04:28:22.795Z,0.00
2019-02-08T04:29:23.260Z,0.00
2019-02-08T04:30:23.826Z,0.00
2019-02-08T04:31:24.264Z,0.00
2019-02-08T04:32:25.791Z,0.00
2019-02-08T04:33:26.225Z,0.00
2019-02-08T04:34:26.759Z,0.00
2019-02-08T04:35:27.186Z,0.00
2019-02-08T04:36:29.704Z,0.00
2019-02-08T04:37:30.140Z,0.00
2019-02-08T04:38:30.851Z,0.00
2019-02-08T04:39:31.296Z,0.00
2019-02-08T04:40:31.782Z,0.00
2019-02-08T04:41:32.222Z,0.00
2019-02-08T04:42:32.796Z,0.00
2019-02-08T04:43:33.275Z,0.00
2019-02-08T04:44:33.827Z,0.00
2019-02-08T04:45:34.256Z,0.00
2019-02-08T04:46:34.834Z,0.00
2019-02-08T04:47:35.283Z,0.00
2019-02-08T04:48:35.898Z,0.00
2019-02-08T04:49:36.337Z,0.00
2019-02-08T04:50:36.904Z,0.00
2019-02-08T04:51:37.346Z,0.00
2019-02-08T04:52:39.885Z,0.00
2019-02-08T04:53:40.362Z,0.00
2019-02-08T04:54:40.941Z,0.00
2019-02-08T04:55:41.383Z,0.00
2019-02-08T04:56:42.988Z,0.00
2019-02-08T04:57:43.431Z,0.00
2019-02-08T04:58:44.981Z,0.00
2019-02-08T04:59:45.426Z,0.00
2019-02-08T05:00:46.011Z,0.00
2019-02-08T05:01:46.451Z,0.00
2019-02-08T05:02:48.042Z,0.00
2019-02-08T05:03:48.496Z,0.00
2019-02-08T05:04:49.189Z,0.00
2019-02-08T05:05:49.620Z,0.00
2019-02-08T05:06:50.188Z,0.00
2019-02-08T05:07:50.625Z,0.00
2019-02-08T05:08:52.186Z,0.00
2019-02-08T05:09:52.628Z,0.00
2019-02-08T05:10:53.192Z,0.00
2019-02-08T05:11:53.625Z,0.00
2019-02-08T05:12:56.165Z,0.00
2019-02-08T05:13:56.612Z,0.00
2019-02-08T05:14:57.207Z,0.00
2019-02-08T05:15:57.638Z,0.00
2019-02-08T05:16:59.168Z,0.00
2019-02-08T05:17:59.612Z,0.00
2019-02-08T05:19:00.129Z,0.00
2019-02-08T05:20:00.562Z,0.00
2019-02-08T05:21:02.062Z,0.00
2019-02-08T05:22:02.663Z,0.00
2019-02-08T05:23:05.242Z,0.00
2019-02-08T05:24:05.699Z,0.00
2019-02-08T05:25:06.284Z,0.00
2019-02-08T05:26:06.715Z,0.00
2019-02-08T05:27:07.319Z,0.00
2019-02-08T05:28:07.747Z,0.00
2019-02-08T05:29:10.343Z,0.00
2019-02-08T05:30:10.790Z,0.00
2019-02-08T05:31:11.343Z,0.00
2019-02-08T05:32:11.780Z,0.00
2019-02-08T05:33:12.362Z,0.00
2019-02-08T05:34:12.809Z,0.00
2019-02-08T05:35:13.300Z,0.00
2019-02-08T05:36:13.729Z,0.00
2019-02-08T05:37:14.234Z,0.00
2019-02-08T05:38:14.665Z,0.00
2019-02-08T05:39:15.202Z,0.00
2019-02-08T05:40:15.637Z,0.00
2019-02-08T05:41:16.207Z,0.00
2019-02-08T05:42:16.644Z,0.00
2019-02-08T05:43:17.071Z,0.00
2019-02-08T05:44:17.516Z,0.00
2019-02-08T05:45:18.117Z,0.00
2019-02-08T05:46:18.559Z,0.00
2019-02-08T05:47:19.869Z,0.00
2019-02-08T05:48:20.308Z,0.00
2019-02-08T05:49:20.940Z,0.00
2019-02-08T05:50:21.380Z,0.00
2019-02-08T05:51:21.944Z,0.00
2019-02-08T05:52:22.371Z,0.00
2019-02-08T05:53:23.907Z,0.00
2019-02-08T05:54:24.347Z,0.00
2019-02-08T05:55:25.969Z,0.00
2019-02-08T05:56:26.402Z,0.00
2019-02-08T05:57:29.156Z,0.00
2019-02-08T05:58:29.615Z,0.00
2019-02-08T05:59:30.182Z,0.00
2019-02-08T06:00:30.617Z,0.00
2019-02-08T06:01:32.104Z,0.00
2019-02-08T06:02:32.542Z,0.00
2019-02-08T06:03:33.043Z,0.00
2019-02-08T06:04:33.502Z,0.00
2019-02-08T06:05:34.080Z,0.00
2019-02-08T06:06:34.516Z,0.00
2019-02-08T06:07:35.026Z,0.00
2019-02-08T06:08:35.451Z,0.00
2019-02-08T06:09:38.049Z,0.00
2019-02-08T06:10:38.487Z,0.00
2019-02-08T06:11:41.082Z,0.00
2019-02-08T06:12:41.525Z,0.00
2019-02-08T06:13:42.122Z,0.00
2019-02-08T06:14:42.565Z,0.00
2019-02-08T06:15:43.056Z,0.00
2019-02-08T06:16:43.491Z,0.00
2019-02-08T06:17:44.094Z,0.00
2019-02-08T06:18:44.524Z,0.00
2019-02-08T06:19:45.064Z,0.00
2019-02-08T06:20:45.500Z,0.00
2019-02-08T06:21:46.064Z,0.00
2019-02-08T06:22:46.502Z,0.00
2019-02-08T06:23:47.000Z,0.00
2019-02-08T06:24:47.455Z,0.00
2019-02-08T06:25:49.989Z,0.00
2019-02-08T06:26:50.420Z,0.00
2019-02-08T06:27:59.526Z,0.00
2019-02-08T06:28:59.969Z,0.00
2019-02-08T06:30:00.494Z,0.00
2019-02-08T06:31:00.937Z,0.00
2019-02-08T06:32:01.506Z,0.00
2019-02-08T06:33:01.946Z,0.00
2019-02-08T06:34:04.485Z,0.00
2019-02-08T06:35:04.938Z,0.00
2019-02-08T06:36:06.541Z,4.00
2019-02-08T06:37:06.968Z,4.00
2019-02-08T06:38:07.395Z,0.00
2019-02-08T06:39:07.832Z,0.00
2019-02-08T06:40:08.280Z,4.00
2019-02-08T06:41:10.774Z,4.00
2019-02-08T06:42:11.214Z,4.00
2019-02-08T06:43:11.714Z,8.00
2019-02-08T06:44:12.155Z,4.00
2019-02-08T06:45:26.913Z,4.00
2019-02-08T06:46:27.346Z,4.00
2019-02-08T06:47:27.812Z,8.00
2019-02-08T06:48:28.240Z,8.00
2019-02-08T06:49:28.747Z,8.00
2019-02-08T06:50:29.198Z,16.00
2019-02-08T06:51:31.751Z,16.00
2019-02-08T06:52:32.191Z,20.00
2019-02-08T06:53:32.767Z,24.00
2019-02-08T06:54:33.199Z,32.00
2019-02-08T06:55:33.726Z,32.00
2019-02-08T06:56:34.162Z,28.00
2019-02-08T06:57:34.586Z,36.00
2019-02-08T06:58:35.023Z,44.00
2019-02-08T06:59:35.460Z,52.00
2019-02-08T07:00:35.905Z,52.00
2019-02-08T07:01:36.344Z,60.00
2019-02-08T07:02:36.781Z,64.00
2019-02-08T07:03:37.223Z,76.00
2019-02-08T07:04:37.660Z,80.00
2019-02-08T07:05:38.208Z,88.00
2019-02-08T07:06:38.648Z,92.00
2019-02-08T07:07:39.204Z,88.00
2019-02-08T07:08:39.644Z,96.00
2019-02-08T07:09:40.240Z,116.00
2019-02-08T07:10:41.482Z,128.00
2019-02-08T07:11:42.003Z,92.00
2019-02-08T07:12:42.436Z,100.00
2019-02-08T07:13:42.865Z,100.00
2019-02-08T07:14:43.293Z,108.00
2019-02-08T07:15:44.124Z,116.00
2019-02-08T07:16:44.563Z,140.00
2019-02-08T07:17:45.165Z,148.00
2019-02-08T07:18:45.593Z,152.00
2019-02-08T07:19:46.194Z,180.00
2019-02-08T07:20:46.653Z,156.00
2019-02-08T07:21:49.488Z,152.00
2019-02-08T07:22:49.927Z,168.00
2019-02-08T07:23:50.367Z,188.00
2019-02-08T07:24:50.801Z,256.00
2019-02-08T07:25:51.302Z,296.00
2019-02-08T07:26:51.742Z,296.00
2019-02-08T07:27:52.393Z,332.00
2019-02-08T07:28:52.829Z,404.00
2019-02-08T07:29:53.270Z,368.00
2019-02-08T07:30:53.788Z,408.00
2019-02-08T07:31:54.220Z,448.00
2019-02-08T07:32:54.664Z,436.00
2019-02-08T07:33:55.096Z,428.00
2019-02-08T07:34:55.553Z,396.00
2019-02-08T07:35:56.014Z,440.00
2019-02-08T07:36:56.441Z,452.00
2019-02-08T07:37:56.867Z,416.00
2019-02-08T07:38:57.295Z,456.00
2019-02-08T07:39:57.746Z,480.00
2019-02-08T07:40:58.262Z,456.00
2019-02-08T07:41:58.691Z,496.00
2019-02-08T07:42:59.121Z,504.00
2019-02-08T07:44:00.608Z,440.00
2019-02-08T07:45:01.065Z,436.00
2019-02-08T07:46:01.517Z,448.00
2019-02-08T07:47:02.008Z,444.00
2019-02-08T07:48:02.449Z,440.00
2019-02-08T07:49:02.879Z,544.00
2019-02-08T07:50:03.325Z,532.00
2019-02-08T07:51:03.830Z,548.00
2019-02-08T07:52:04.340Z,492.00
2019-02-08T07:53:04.791Z,540.00
2019-02-08T07:54:05.279Z,564.00
2019-02-08T07:55:05.727Z,680.00
2019-02-08T07:56:06.205Z,848.00
2019-02-08T07:57:06.658Z,892.00
2019-02-08T07:58:07.128Z,1036.00
2019-02-08T07:59:07.556Z,1172.00
2019-02-08T08:00:08.036Z,1240.00
2019-02-08T08:01:08.506Z,1164.00
2019-02-08T08:02:10.952Z,916.00
2019-02-08T08:03:11.381Z,956.00
2019-02-08T08:04:18.358Z,752.00
2019-02-08T08:05:18.794Z,772.00
2019-02-08T08:06:19.270Z,708.00
2019-02-08T08:07:19.697Z,684.00
2019-02-08T08:08:21.145Z,732.00
2019-02-08T08:09:21.586Z,868.00
2019-02-08T08:10:22.017Z,1020.00
2019-02-08T08:11:22.470Z,900.00
2019-02-08T08:12:23.905Z,836.00
2019-02-08T08:13:24.337Z,708.00
2019-02-08T08:14:39.365Z,716.00
2019-02-08T08:15:39.821Z,812.00
2019-02-08T08:16:41.323Z,940.00
2019-02-08T08:17:41.759Z,1092.00
2019-02-08T08:18:44.310Z,1228.00
2019-02-08T08:19:44.746Z,1072.00
2019-02-08T08:20:53.876Z,1064.00
2019-02-08T08:21:54.325Z,1040.00
2019-02-08T08:22:54.760Z,1000.00
2019-02-08T08:23:55.194Z,1028.00
2019-02-08T08:24:55.757Z,1248.00
2019-02-08T08:25:56.219Z,1472.00
2019-02-08T08:26:56.665Z,1264.00
2019-02-08T08:27:57.098Z,1368.00
2019-02-08T08:29:14.383Z,1476.00
2019-02-08T08:30:14.823Z,1320.00
2019-02-08T08:31:16.373Z,1248.00
2019-02-08T08:32:16.822Z,1096.00
2019-02-08T08:33:18.299Z,1120.00
2019-02-08T08:34:18.726Z,1020.00
2019-02-08T08:36:35.395Z,1300.00
2019-02-08T08:37:37.992Z,1332.00
2019-02-08T08:38:38.421Z,1252.00
2019-02-08T08:39:38.857Z,1432.00
2019-02-08T08:40:40.368Z,1356.00
2019-02-08T08:41:40.822Z,1260.00
2019-02-08T08:42:41.253Z,1432.00
2019-02-08T08:43:41.822Z,1624.00
2019-02-08T08:44:42.248Z,1456.00
2019-02-08T08:45:42.757Z,2536.00
2019-02-08T08:46:43.205Z,2200.00
2019-02-08T08:47:45.739Z,2188.00
2019-02-08T08:48:46.177Z,2200.00
2019-02-08T08:49:46.677Z,2720.00
2019-02-08T08:50:47.109Z,2984.00
2019-02-08T08:51:52.532Z,1876.00
2019-02-08T08:52:52.970Z,1900.00
2019-02-08T08:53:53.397Z,1460.00
2019-02-08T08:54:53.829Z,1600.00
2019-02-08T08:55:54.271Z,1264.00
2019-02-08T08:56:54.739Z,1648.00
2019-02-08T08:57:55.183Z,1460.00
2019-02-08T08:58:55.630Z,888.00
2019-02-08T08:59:56.449Z,1084.00
2019-02-08T09:00:56.989Z,1256.00
2019-02-08T09:01:57.431Z,1108.00
2019-02-08T09:02:57.867Z,1100.00
2019-02-08T09:03:58.306Z,996.00
2019-02-08T09:04:58.742Z,1312.00
2019-02-08T09:06:08.072Z,1232.00
2019-02-08T09:07:06.638Z,1212.00
2019-02-08T09:08:07.190Z,1572.00
2019-02-08T09:09:07.616Z,1992.00
2019-02-08T09:10:14.866Z,1788.00
2019-02-08T09:11:15.331Z,1636.00
2019-02-08T09:12:15.802Z,1712.00
2019-02-08T09:13:16.234Z,1784.00
2019-02-08T09:14:16.740Z,1680.00
2019-02-08T09:15:17.176Z,1580.00
2019-02-08T09:16:17.628Z,1788.00
2019-02-08T09:17:18.062Z,1628.00
2019-02-08T09:18:18.609Z,1484.00
2019-02-08T09:19:19.042Z,1436.00
2019-02-08T09:20:19.546Z,1792.00
2019-02-08T09:21:20.020Z,1916.00
2019-02-08T09:22:20.582Z,1748.00
2019-02-08T09:23:21.010Z,1448.00
2019-02-08T09:24:21.558Z,1320.00
2019-02-08T09:25:22.001Z,1440.00
2019-02-08T09:26:22.527Z,1476.00
2019-02-08T09:27:22.975Z,1540.00
2019-02-08T09:28:23.492Z,1540.00
2019-02-08T09:29:23.943Z,1604.00
2019-02-08T09:30:24.390Z,1540.00
2019-02-08T09:31:24.862Z,1628.00
2019-02-08T09:32:25.449Z,1732.00
2019-02-08T09:33:25.896Z,1668.00
2019-02-08T09:34:26.393Z,1436.00
2019-02-08T09:35:26.828Z,1828.00
2019-02-08T09:36:27.351Z,1872.00
2019-02-08T09:37:27.792Z,2320.00
2019-02-08T09:38:28.240Z,2100.00
2019-02-08T09:39:28.767Z,2008.00
2019-02-08T09:40:29.216Z,2240.00
2019-02-08T09:41:29.764Z,2588.00
2019-02-08T09:42:30.232Z,2316.00
2019-02-08T09:43:30.744Z,2440.00
2019-02-08T09:44:31.187Z,2456.00
2019-02-08T09:45:31.675Z,2140.00
2019-02-08T09:46:32.133Z,2176.00
2019-02-08T09:47:32.610Z,2188.00
2019-02-08T09:48:33.049Z,2456.00
2019-02-08T09:49:33.489Z,2176.00
2019-02-08T09:50:33.940Z,1916.00
2019-02-08T09:51:34.409Z,1976.00
2019-02-08T09:52:34.837Z,2020.00
2019-02-08T09:53:35.273Z,2136.00
2019-02-08T09:54:35.828Z,2328.00
2019-02-08T09:55:36.265Z,2688.00
2019-02-08T09:56:36.796Z,2672.00
2019-02-08T09:57:37.225Z,2844.00
2019-02-08T09:58:37.706Z,2736.00
2019-02-08T09:59:38.130Z,3300.00
2019-02-08T10:00:38.669Z,3188.00
2019-02-08T10:01:39.121Z,3316.00
2019-02-08T10:02:39.570Z,3140.00
2019-02-08T10:03:39.998Z,3476.00
2019-02-08T10:04:40.506Z,2792.00
2019-02-08T10:05:40.978Z,2440.00
2019-02-08T10:06:41.482Z,2808.00
2019-02-08T10:07:41.913Z,2716.00
2019-02-08T10:08:50.368Z,2312.00
2019-02-08T10:09:51.127Z,2296.00
2019-02-08T10:10:51.559Z,2756.00
2019-02-08T10:11:52.061Z,2280.00
2019-02-08T10:12:52.513Z,2120.00
2019-02-08T10:13:52.961Z,1996.00
2019-02-08T10:14:54.894Z,2024.00
2019-02-08T10:15:56.454Z,2168.00
2019-02-08T10:16:56.902Z,2060.00
2019-02-08T10:18:04.354Z,1992.00
2019-02-08T10:19:04.781Z,1852.00
2019-02-08T10:20:05.291Z,2044.00
2019-02-08T10:21:05.726Z,2328.00
2019-02-08T10:22:06.259Z,2204.00
2019-02-08T10:23:06.713Z,2340.00
2019-02-08T10:24:07.272Z,2440.00
2019-02-08T10:25:07.702Z,2540.00
2019-02-08T10:26:08.131Z,2664.00
2019-02-08T10:27:08.587Z,2520.00
2019-02-08T10:28:09.034Z,2860.00
2019-02-08T10:29:09.468Z,2512.00
2019-02-08T10:30:09.974Z,2804.00
2019-02-08T10:31:10.412Z,3356.00
2019-02-08T10:32:12.883Z,3220.00
2019-02-08T10:33:13.312Z,2780.00
2019-02-08T10:34:21.355Z,2348.00
2019-02-08T10:35:21.795Z,2840.00
2019-02-08T10:36:22.291Z,3236.00
2019-02-08T10:37:22.738Z,3640.00
2019-02-08T10:38:23.230Z,3752.00
2019-02-08T10:39:23.657Z,3284.00
2019-02-08T10:40:24.106Z,4228.00
2019-02-08T10:41:30.460Z,3788.00
2019-02-08T10:42:30.963Z,2780.00
2019-02-08T10:43:31.412Z,2700.00
2019-02-08T10:44:31.962Z,2504.00
2019-02-08T10:45:32.400Z,2296.00
2019-02-08T10:46:32.899Z,2396.00
2019-02-08T10:47:33.347Z,2728.00
2019-02-08T10:48:33.834Z,2252.00
2019-02-08T10:49:34.269Z,2692.00
2019-02-08T10:50:34.697Z,2936.00
2019-02-08T10:51:35.137Z,3332.00
2019-02-08T10:52:35.775Z,2552.00
2019-02-08T10:53:36.251Z,2856.00
2019-02-08T10:54:36.818Z,2692.00
2019-02-08T10:55:37.268Z,2848.00
2019-02-08T10:56:37.792Z,2132.00
2019-02-08T10:57:38.285Z,3288.00
2019-02-08T10:58:38.823Z,3052.00
2019-02-08T10:59:39.265Z,2616.00
2019-02-08T11:00:39.764Z,2532.00
2019-02-08T11:01:41.976Z,2636.00
2019-02-08T11:02:42.853Z,2736.00
2019-02-08T11:03:43.290Z,2888.00
2019-02-08T11:04:43.735Z,3032.00
2019-02-08T11:05:44.164Z,3428.00
2019-02-08T11:06:44.756Z,3060.00
2019-02-08T11:07:45.332Z,3724.00
2019-02-08T11:08:47.910Z,3440.00
2019-02-08T11:09:48.389Z,2576.00
2019-02-08T11:10:55.903Z,2404.00
2019-02-08T11:11:56.377Z,3184.00
2019-02-08T11:12:56.905Z,3272.00
2019-02-08T11:13:57.380Z,2688.00
2019-02-08T11:15:05.404Z,2792.00
2019-02-08T11:16:05.861Z,2988.00
2019-02-08T11:17:08.337Z,4120.00
2019-02-08T11:18:08.814Z,3996.00
2019-02-08T11:19:09.252Z,3192.00
2019-02-08T11:20:09.704Z,2792.00
2019-02-08T11:21:10.206Z,3180.00
2019-02-08T11:22:10.687Z,2496.00
2019-02-08T11:23:11.137Z,2724.00
2019-02-08T11:24:11.568Z,3024.00
2019-02-08T11:25:12.007Z,3916.00
2019-02-08T11:26:12.489Z,4136.00
2019-02-08T11:27:12.923Z,2800.00
2019-02-08T11:28:13.503Z,3132.00
2019-02-08T11:29:13.953Z,2848.00
2019-02-08T11:30:14.463Z,3272.00
2019-02-08T11:31:14.902Z,3224.00
2019-02-08T11:32:17.452Z,2596.00
2019-02-08T11:33:17.913Z,2472.00
2019-02-08T11:34:18.340Z,2304.00
2019-02-08T11:35:18.781Z,2232.00
2019-02-08T11:36:19.228Z,2264.00
2019-02-08T11:37:19.668Z,2376.00
2019-02-08T11:38:20.123Z,2648.00
2019-02-08T11:39:20.550Z,2752.00
2019-02-08T11:40:20.980Z,2664.00
2019-02-08T11:41:21.502Z,3776.00
2019-02-08T11:42:21.943Z,3708.00
2019-02-08T11:43:22.488Z,2768.00
2019-02-08T11:44:22.925Z,3148.00
2019-02-08T11:45:23.390Z,3496.00
2019-02-08T11:46:23.846Z,3976.00
2019-02-08T11:47:24.311Z,3456.00
2019-02-08T11:48:24.866Z,3432.00
2019-02-08T11:49:25.296Z,3820.00
2019-02-08T11:50:25.788Z,3848.00
2019-02-08T11:51:26.228Z,4560.00
2019-02-08T11:52:26.798Z,4656.00
2019-02-08T11:53:27.298Z,5288.00
2019-02-08T11:54:27.747Z,4328.00
2019-02-08T11:55:28.256Z,4224.00
2019-02-08T11:56:30.091Z,3548.00
2019-02-08T11:57:30.706Z,3372.00
2019-02-08T11:58:31.192Z,3236.00
2019-02-08T11:59:31.678Z,3772.00
2019-02-08T12:00:32.112Z,4276.00
2019-02-08T12:01:32.561Z,4336.00
2019-02-08T12:02:40.249Z,3740.00
2019-02-08T12:03:39.439Z,3732.00
2019-02-08T12:04:39.877Z,4324.00
2019-02-08T12:05:40.326Z,4856.00
2019-02-08T12:06:40.765Z,5068.00
2019-02-08T12:07:41.206Z,4172.00
2019-02-08T12:08:41.662Z,4128.00
2019-02-08T12:09:42.099Z,3600.00
2019-02-08T12:10:42.639Z,2808.00
2019-02-08T12:11:44.310Z,2300.00
2019-02-08T12:12:44.829Z,2868.00
2019-02-08T12:13:45.291Z,3932.00
2019-02-08T12:14:45.941Z,4680.00
2019-02-08T12:15:46.377Z,4192.00
2019-02-08T12:16:46.832Z,3628.00
2019-02-08T12:17:47.266Z,3712.00
2019-02-08T12:18:47.712Z,3928.00
2019-02-08T12:19:48.181Z,4088.00
2019-02-08T12:20:48.641Z,4732.00
2019-02-08T12:21:49.100Z,5456.00
2019-02-08T12:22:49.544Z,3840.00
2019-02-08T12:23:51.088Z,5224.00
2019-02-08T12:24:52.552Z,5496.00
2019-02-08T12:25:53.221Z,5556.00
2019-02-08T12:26:53.669Z,6056.00
2019-02-08T12:27:54.155Z,5572.00
2019-02-08T12:28:54.604Z,5328.00
2019-02-08T12:29:55.094Z,5400.00
2019-02-08T12:30:55.602Z,6016.00
2019-02-08T12:31:56.135Z,5952.00
2019-02-08T12:32:56.578Z,5728.00
2019-02-08T12:33:57.111Z,5272.00
2019-02-08T12:34:57.549Z,4268.00
2019-02-08T12:35:58.005Z,3728.00
2019-02-08T12:36:58.466Z,3416.00
2019-02-08T12:37:58.938Z,3292.00
2019-02-08T12:38:59.397Z,3300.00
2019-02-08T12:40:06.834Z,3144.00
2019-02-08T12:41:09.778Z,3296.00
2019-02-08T12:42:10.637Z,2776.00
2019-02-08T12:43:11.075Z,3168.00
2019-02-08T12:44:11.615Z,3472.00
2019-02-08T12:45:12.046Z,4252.00
2019-02-08T12:46:12.511Z,3620.00
2019-02-08T12:47:12.943Z,3688.00
2019-02-08T12:48:13.445Z,3656.00
2019-02-08T12:49:13.912Z,4120.00
2019-02-08T12:50:14.361Z,4408.00
2019-02-08T12:51:15.822Z,3444.00
2019-02-08T12:52:16.255Z,4188.00
2019-02-08T12:53:16.755Z,4080.00
2019-02-08T12:54:17.211Z,4220.00
2019-02-08T12:55:17.745Z,4812.00
2019-02-08T12:56:18.192Z,4844.00
2019-02-08T12:57:18.676Z,4212.00
2019-02-08T12:58:19.126Z,3660.00
2019-02-08T12:59:19.595Z,3832.00
2019-02-08T13:00:21.056Z,3820.00
2019-02-08T13:01:21.491Z,3836.00
2019-02-08T13:02:29.870Z,4288.00